Airport ICAO


09:33 UTC

0°C


An affordable passengers' Moving Map for your aircraft. Made for the iPad and the iPhone
More information here

EGLL Heathrow


London UNITED KINGDOM   VFR


METAR EGLL 180920Z AUTO 13006KT 9999 NCD 00/M02 Q1018 NOSIG 0h13min

TAF EGLL 180453Z 1806/1912 14006KT 9999 FEW030 PROB30 1806/1809 4000 BR BECMG 1821/1824 BKN012 TEMPO 1900/1912 4000 RA -RADZ BKN005 PROB30 TEMPO 1906/1911 BKN003 4h40min





NOTAMS

OPEN